Terminal Aerodrome Forecast
Issued by NWS

Home | Current Version | Previous Version | Text Only | Print | Product List | Glossary On
Versions: 1 2 3 4 5 6 7 8 9 10 11 12 13 14 15 16 17 18 19
000
FTUS45 KFGZ 281100
TAFPGA
TAF
KPGA 281124Z 2812/2912 VRB05KT P6SM FEW110 BKN150
     FM282200 18010KT P6SM SCT090 BKN130
      TEMPO 2823/2903 VRB20G35KT 4SM TSRA BKN080CB=

USA.gov is the U.S. government's official web portal to all federal, state and local government web resources and services.